M I D A S
Marine Information and Data Acquisition System
Tripno 367 of the Zeeleeuw from 2002-12-11 07:54:24 to 2002-12-11 13:24:04
Back to CruiseResearch ActivitiesStationsMapUnderway DataData graphs

EquipmentUnitsComment
TimeDGPSUTC
LatitudeDGPSDM.mWGS84
LongitudeDGPSDM.mWGS84
HeadingGyrodeg 
SOGDGPSknotsSpeed over ground
COGDGPSdegCourse over ground
DepthEcho soundermeters200 kHz
Missing or incorrect values are displayed as -999
Navigation data collected by the RV Zeeleeuw from 2002-12-11 07:54:24 to 2002-12-11 13:24:04
                                                                                    Next 1000 lines
Time Latitude Longitude Heading SOG COG Depth
2002-12-11 07:54:33 51°13.589 2°56.13 129.2 0.1 222.3 8.2
2002-12-11 07:54:36 51°13.589 2°56.13 129.7 0.1 212.1 7.9
2002-12-11 07:54:43 51°13.589 2°56.13 130 0.1 184.2 -999
2002-12-11 07:54:48 51°13.589 2°56.13 130.7   191.2 7.9
2002-12-11 07:54:53 51°13.589 2°56.13 131 0.1 231.9 -999
2002-12-11 07:54:58 51°13.589 2°56.13 131.5   224.3 -999
2002-12-11 07:55:03 51°13.588 2°56.13 132 0.1 202.6 8.1
2002-12-11 07:55:08 51°13.588 2°56.13 132.5 0.1 211.4 -999
2002-12-11 07:55:13 51°13.588 2°56.13 132.8 0.1 213.1 -999
2002-12-11 07:55:17 51°13.588 2°56.129 133.3 0.1 225.8 8.2
2002-12-11 07:55:23 51°13.588 2°56.129 133.7 0.1 235.4 -999
2002-12-11 07:55:27 51°13.588 2°56.129 134.3 0.1 228.2 8.2
2002-12-11 07:55:32 51°13.588 2°56.129 134.8 0.1 230.3 8.2
2002-12-11 07:55:37 51°13.588 2°56.129 135.3 0.1 236.2 -999
2002-12-11 07:55:43 51°13.588 2°56.128 135.8 0.1 235.7 -999
2002-12-11 07:55:47 51°13.588 2°56.128 136.3 0.1 227.7 8.3
2002-12-11 07:55:52 51°13.588 2°56.128 137   229.6 8.3
2002-12-11 07:55:56 51°13.587 2°56.128 137.3 0.1 239.5 8.4
2002-12-11 07:56:02 51°13.587 2°56.128 138 0.1 236.4 8.3
2002-12-11 07:56:07 51°13.587 2°56.127 138.5 0.2 227.9 8.4
2002-12-11 07:56:12 51°13.587 2°56.128 139 0.1 215.7 8.3
2002-12-11 07:56:16 51°13.587 2°56.128 139.7 0.1 197 8.4
2002-12-11 07:56:22 51°13.587 2°56.128 140.2 0.2 159.7 8.4
2002-12-11 07:56:28 51°13.586 2°56.128 140.8 0.3 150.1 8.4
2002-12-11 07:56:32 51°13.585 2°56.129 141.7 0.6 146.6 8.4
2002-12-11 07:56:37 51°13.584 2°56.131 142.7 1 143.1 8.4
2002-12-11 07:56:42 51°13.582 2°56.133 143.7 1.5 141.8 8.3
2002-12-11 07:56:47 51°13.58 2°56.136 144.3 1.9 142 8.6
2002-12-11 07:56:53 51°13.576 2°56.14 144.5 2.4 141.9 -999
2002-12-11 07:56:58 51°13.573 2°56.145 144.5 2.8 141.6 -999
2002-12-11 07:57:04 51°13.569 2°56.15 144.8 3.1 142 -999
2002-12-11 07:57:08 51°13.566 2°56.153 145.2 3.3 142.6 -999
2002-12-11 07:57:12 51°13.563 2°56.157 145.3 3.4 143 10.4
2002-12-11 07:57:17 51°13.558 2°56.161 145.3 3.6 143 10.7
2002-12-11 07:57:22 51°13.554 2°56.166 145 3.7 142.8 10.7
2002-12-11 07:57:27 51°13.55 2°56.171 144.2 3.8 142.1 10.7
2002-12-11 07:57:32 51°13.546 2°56.176 141.7 3.8 141.8 10.7
2002-12-11 07:57:37 51°13.543 2°56.182 138 3.7 138.8 10.8
2002-12-11 07:57:41 51°13.54 2°56.186 132.8 3.6 134.8 10.8
2002-12-11 07:57:48 51°13.536 2°56.195 128.3 3.4 129.5 10.8
2002-12-11 07:57:53 51°13.534 2°56.2 123.3 3.3 124.5 10.6
2002-12-11 07:57:57 51°13.532 2°56.205 118.7 3.1 119.7 10.6
2002-12-11 07:58:02 51°13.53 2°56.211 114.3 3.1 115.9 10.7
2002-12-11 07:58:07 51°13.529 2°56.218 109.7 3 109.7 10.6
2002-12-11 07:58:12 51°13.529 2°56.224 104.3 2.9 103.9 10.7
2002-12-11 07:58:17 51°13.528 2°56.23 99.5 2.8 98.2 10.7
2002-12-11 07:58:22 51°13.529 2°56.236 95.2 2.7 92.5 10.7
2002-12-11 07:58:27 51°13.529 2°56.241 91.2 2.5 87.3 10.6
2002-12-11 07:58:33 51°13.53 2°56.247 87.3 2.4 82.3 -999
2002-12-11 07:58:38 51°13.53 2°56.252 83.2 2.3 79.6 8.7
2002-12-11 07:58:42 51°13.531 2°56.256 79.7 2.2 74.2 -999
2002-12-11 07:58:48 51°13.532 2°56.261 77.3 2.2 71.5 -999
2002-12-11 07:58:53 51°13.533 2°56.265 75.7 2.1 68.9 7.8
2002-12-11 07:58:57 51°13.534 2°56.268 73.8 1.9 66.2 -999
2002-12-11 07:59:02 51°13.535 2°56.271 71.2 1.6 62.4 8.2
2002-12-11 07:59:07 51°13.536 2°56.273 68.5 1.4 57.9 8.2
2002-12-11 07:59:12 51°13.537 2°56.275 65.5 1.1 53.9 8.2
2002-12-11 07:59:17 51°13.538 2°56.276 63.2 0.8 49.8 8.2
2002-12-11 07:59:22 51°13.538 2°56.277 60.8 0.6 41.6 8.2
2002-12-11 07:59:27 51°13.539 2°56.277 59 0.3 20.9 8.2
2002-12-11 07:59:33 51°13.539 2°56.276 57.5 0.2 328.6 8.2
2002-12-11 07:59:36 51°13.539 2°56.275 55.8 0.3 275.4 8.2
2002-12-11 07:59:42 51°13.538 2°56.274 54.2 0.5 259.4 8.2
2002-12-11 07:59:47 51°13.538 2°56.272 52.8 0.8 250.9 8.1
2002-12-11 07:59:52 51°13.537 2°56.27 51.3 1 243.8 7.8
2002-12-11 07:59:58 51°13.536 2°56.267 49.7 1.2 239.6 -999
2002-12-11 08:00:03 51°13.535 2°56.264 48 1.4 239.2 -999
2002-12-11 08:00:08 51°13.534 2°56.261 46.7 1.5 237.5 -999
2002-12-11 08:00:13 51°13.533 2°56.259 45.5 1.5 235.9 -999
2002-12-11 08:00:18 51°13.531 2°56.256 44.5 1.4 232.9 -999
2002-12-11 08:00:23 51°13.53 2°56.254 43.8 1.4 232.1 -999
2002-12-11 08:00:28 51°13.529 2°56.252 42.8 1.2 231.2 -999
2002-12-11 08:00:32 51°13.529 2°56.25 41.3 1.1 235.1 -999
2002-12-11 08:00:38 51°13.529 2°56.249 38.8 0.7 244.8 -999
2002-12-11 08:00:43 51°13.529 2°56.249 35 0.4 277.5 -999
2002-12-11 08:00:48 51°13.53 2°56.248 30.2 0.4 332.7 -999
2002-12-11 08:00:52 51°13.53 2°56.248 26 0.6 351.9 -999
2002-12-11 08:00:58 51°13.532 2°56.248 22 0.7 0.3 -999
2002-12-11 08:01:03 51°13.533 2°56.248 17.3 0.9 358.6 -999
2002-12-11 08:01:08 51°13.534 2°56.248 13.5 1 357.7 -999
2002-12-11 08:01:12 51°13.535 2°56.248 10.8 1 355 -999
2002-12-11 08:01:18 51°13.537 2°56.247 8.7 0.9 353 -999
2002-12-11 08:01:22 51°13.537 2°56.247 6.5 0.7 348.5 -999
2002-12-11 08:01:28 51°13.538 2°56.247 4.5 0.5 343 -999
2002-12-11 08:01:33 51°13.538 2°56.246 2.8 0.3 330.5 8.4
2002-12-11 08:01:36 51°13.538 2°56.246 1.5 0.2 289.7 8.3
2002-12-11 08:01:42 51°13.538 2°56.246 0.3 0.3 218.4 8.3
2002-12-11 08:01:47 51°13.537 2°56.245 359 0.5 197.7 8.4
2002-12-11 08:01:52 51°13.536 2°56.245 357.5 0.7 191.5 8.4
2002-12-11 08:01:58 51°13.534 2°56.245 356 0.9 186.3 -999
2002-12-11 08:02:02 51°13.532 2°56.245 354.3 1.2 181.5 -999
2002-12-11 08:02:08 51°13.53 2°56.244 353.2 1.3 180.6 -999
2002-12-11 08:02:13 51°13.528 2°56.245 351.8 1.5 178.6 -999
2002-12-11 08:02:18 51°13.525 2°56.245 350.7 1.6 176.7 -999
2002-12-11 08:02:23 51°13.523 2°56.246 349.8 1.7 174.2 -999
2002-12-11 08:02:28 51°13.521 2°56.246 349.5 1.7 173.1 -999
2002-12-11 08:02:32 51°13.519 2°56.246 349.3 1.6 172.8 -999
2002-12-11 08:02:38 51°13.517 2°56.246 349.3 1.5 174.6 -999
2002-12-11 08:02:43 51°13.515 2°56.247 349 1.4 174.8 -999
2002-12-11 08:02:48 51°13.513 2°56.246 348.3 1.2 178.3 -999
2002-12-11 08:02:53 51°13.512 2°56.246 347.3 1 180.4 -999
2002-12-11 08:02:58 51°13.511 2°56.246 346 0.9 183.1 10.9
2002-12-11 08:03:02 51°13.51 2°56.246 344.7 0.8 186 10.9
2002-12-11 08:03:07 51°13.51 2°56.245 343.3 0.6 200 10.9
2002-12-11 08:03:10 51°13.509 2°56.245 341.2 0.4 220.1 10.7
2002-12-11 08:03:17 51°13.509 2°56.244 338.2 0.4 255.5 10.7
2002-12-11 08:03:20 51°13.51 2°56.243 334.8 0.5 283 10.7
2002-12-11 08:03:27 51°13.51 2°56.241 331.5 0.7 296.5 10.8
2002-12-11 08:03:32 51°13.511 2°56.239 327.3 0.9 305.1 10.7
2002-12-11 08:03:37 51°13.512 2°56.236 323.3 1.2 307.4 10.7
2002-12-11 08:03:41 51°13.514 2°56.235 319.5 1.5 309.3 -999
2002-12-11 08:03:48 51°13.516 2°56.23 316.8 1.8 308.8 10.7
2002-12-11 08:03:52 51°13.517 2°56.227 315 2 308.2 10.7
2002-12-11 08:03:56 51°13.519 2°56.224 314.2 2.2 308 10.7
2002-12-11 08:04:02 51°13.521 2°56.218 313.5 2.5 307.5 10.7
2002-12-11 08:04:07 51°13.524 2°56.213 313.2 2.7 307.3 10.2
2002-12-11 08:04:12 51°13.526 2°56.208 313 2.9 307 10.4
2002-12-11 08:04:16 51°13.529 2°56.203 313.2 3.2 307.1 10.4
2002-12-11 08:04:21 51°13.532 2°56.196 312.7 3.5 307.6 10.7
2002-12-11 08:04:27 51°13.536 2°56.187 312 3.9 307.2 10.7
2002-12-11 08:04:32 51°13.539 2°56.18 311.7 4.3 307.2 10.7
2002-12-11 08:04:37 51°13.543 2°56.172 311.5 4.6 306.9 10.6
2002-12-11 08:04:42 51°13.548 2°56.163 311.3 4.8 306.6 10.7
2002-12-11 08:04:47 51°13.552 2°56.154 311.2 5 306.4 10.6
2002-12-11 08:04:52 51°13.557 2°56.144 311.3 5.3 306.6 10.4
2002-12-11 08:04:56 51°13.56 2°56.137 311.5 5.4 306.6 10.2
2002-12-11 08:05:02 51°13.566 2°56.125 311.5 5.4 306.4 10.4
2002-12-11 08:05:06 51°13.569 2°56.117 311.2 5.5 306.4 10.5
2002-12-11 08:05:12 51°13.575 2°56.105 311 5.5 306.5 10.4
2002-12-11 08:05:16 51°13.578 2°56.097 311.2 5.5 306.9 10.1
2002-12-11 08:05:22 51°13.584 2°56.085 310.8 5.6 306.6 9.5
2002-12-11 08:05:28 51°13.589 2°56.073 310.5 5.6 306.6 9.7
2002-12-11 08:05:32 51°13.593 2°56.065 310 5.7 306.1 10
2002-12-11 08:05:37 51°13.597 2°56.055 310 5.7 305.6 10.2
2002-12-11 08:05:40 51°13.6 2°56.049 309.5 5.7 305.5 10.4
2002-12-11 08:05:46 51°13.605 2°56.036 308.7 5.7 304.9 10.1
2002-12-11 08:05:52 51°13.611 2°56.024 307.8 5.7 304 10
2002-12-11 08:05:57 51°13.615 2°56.013 307.5 5.7 303.4 10.1
2002-12-11 08:06:03 51°13.62 2°56 307.3 5.8 302.9 10.5
2002-12-11 08:06:07 51°13.624 2°55.992 307.3 5.8 302.9 10.4
2002-12-11 08:06:12 51°13.628 2°55.98 307.7 5.9 302.9 9.8
2002-12-11 08:06:18 51°13.634 2°55.968 308 5.9 303.4 -999
2002-12-11 08:06:22 51°13.637 2°55.959 307.8 5.9 303.4 11.5
2002-12-11 08:06:24 51°13.639 2°55.955 307.3 5.9 303.4 11.2
2002-12-11 08:06:31 51°13.645 2°55.94 306.8 5.9 302.8 11.2
2002-12-11 08:06:36 51°13.65 2°55.929 306.5 5.9 302.3 11.1
2002-12-11 08:06:42 51°13.655 2°55.915 306 5.9 301.7 11.1
2002-12-11 08:06:47 51°13.659 2°55.904 305.7 5.9 301.4 11
2002-12-11 08:06:52 51°13.663 2°55.892 305.5 6 300.8 9.7
2002-12-11 08:06:57 51°13.668 2°55.881 305.8 6 300.8 9.8
2002-12-11 08:07:02 51°13.672 2°55.869 306.5 6 301.1 -999
2002-12-11 08:07:08 51°13.677 2°55.856 307.3 6 301.9 9.8
2002-12-11 08:07:12 51°13.681 2°55.847 308 6 302.6 9.8
2002-12-11 08:07:17 51°13.685 2°55.836 308.5 6 303.3 9.2
2002-12-11 08:07:22 51°13.69 2°55.825 308.7 6 303.7 9.9
2002-12-11 08:07:28 51°13.695 2°55.812 308.8 6 304 -999
2002-12-11 08:07:33 51°13.7 2°55.801 309.3 6 304.2 10.7
2002-12-11 08:07:37 51°13.704 2°55.792 309.8 6.1 304.8 12.1
2002-12-11 08:07:41 51°13.708 2°55.783 310.3 6.2 305.1 12.6
2002-12-11 08:07:47 51°13.714 2°55.77 311.3 6.2 305.8 12.8
2002-12-11 08:07:52 51°13.72 2°55.759 312.5 6.2 307 12.6
2002-12-11 08:07:57 51°13.725 2°55.748 313.7 6.3 308.1 11.2
2002-12-11 08:08:02 51°13.731 2°55.738 316 6.3 309.5 11
2002-12-11 08:08:06 51°13.736 2°55.73 318.5 6.3 311.7 10.7
2002-12-11 08:08:12 51°13.743 2°55.718 321.3 6.3 314.4 10.5
2002-12-11 08:08:17 51°13.75 2°55.709 324.5 6.3 317.5 10.2
2002-12-11 08:08:21 51°13.755 2°55.702 328.3 6.2 320.9 10.2
2002-12-11 08:08:27 51°13.764 2°55.693 331.2 6.2 323.8 10.2
2002-12-11 08:08:32 51°13.771 2°55.685 333.5 6.2 326.1 10.3
2002-12-11 08:08:37 51°13.779 2°55.679 335.2 6.2 328.3 10.4
2002-12-11 08:08:42 51°13.786 2°55.672 337 6.2 330.1 11
2002-12-11 08:08:47 51°13.794 2°55.665 338.3 6.3 331.3 10.8
2002-12-11 08:08:52 51°13.802 2°55.659 339.3 6.3 332.6 10.7
2002-12-11 08:08:57 51°13.81 2°55.653 340.2 6.3 333.7 10.9
2002-12-11 08:09:02 51°13.818 2°55.647 341.3 6.3 335.1 10.9
2002-12-11 08:09:07 51°13.826 2°55.642 342.2 6.4 336.2 11.1
2002-12-11 08:09:12 51°13.834 2°55.636 342.5 6.4 337 10.9
2002-12-11 08:09:16 51°13.84 2°55.632 342.7 6.4 337.6 11.1
2002-12-11 08:09:22 51°13.85 2°55.626 343.2 6.4 338.5 10.9
2002-12-11 08:09:27 51°13.859 2°55.621 343.7 6.4 339 10.7
2002-12-11 08:09:32 51°13.867 2°55.616 344 6.5 339.5 10.6
2002-12-11 08:09:37 51°13.876 2°55.611 343.7 6.5 339.3 10.6
2002-12-11 08:09:41 51°13.883 2°55.607 343 6.6 338.9 10.8
2002-12-11 08:09:48 51°13.894 2°55.599 342.5 6.6 338.2 -999
2002-12-11 08:09:53 51°13.903 2°55.594 343 6.6 338.8 -999
2002-12-11 08:09:58 51°13.911 2°55.589 344.3 6.6 339.7 -999
2002-12-11 08:10:03 51°13.92 2°55.584 345 6.6 340.8 10.6
2002-12-11 08:10:06 51°13.925 2°55.581 344.3 6.6 340.6 10.7
2002-12-11 08:10:12 51°13.935 2°55.575 343.2 6.6 339.7 10.6
2002-12-11 08:10:16 51°13.942 2°55.57 341.7 6.6 337.9 10.8
2002-12-11 08:10:22 51°13.952 2°55.563 340 6.6 335.9 10.6
2002-12-11 08:10:26 51°13.959 2°55.558 339 6.6 334.1 10.7
2002-12-11 08:10:32 51°13.968 2°55.55 338.3 6.5 333 11.1
2002-12-11 08:10:36 51°13.974 2°55.545 338.5 6.5 332.6 11
2002-12-11 08:10:42 51°13.984 2°55.537 338.5 6.5 332.7 10.8
2002-12-11 08:10:47 51°13.992 2°55.53 338 6.5 332.2 10.9
2002-12-11 08:10:52 51°14 2°55.523 337 6.5 331.5 11.1
2002-12-11 08:10:57 51°14.008 2°55.516 336.3 6.5 330.7 11.1
2002-12-11 08:11:02 51°14.016 2°55.509 336.2 6.6 330.1 10.3
2002-12-11 08:11:06 51°14.022 2°55.503 336.5 6.6 330.1 11
2002-12-11 08:11:12 51°14.032 2°55.494 336.7 6.7 330.2 11
2002-12-11 08:11:17 51°14.04 2°55.486 336.7 6.8 330.4 10.8
2002-12-11 08:11:22 51°14.049 2°55.479 336.7 6.9 330.2 10.8
2002-12-11 08:11:27 51°14.057 2°55.471 336.7 6.9 330.5 10.7
2002-12-11 08:11:32 51°14.065 2°55.463 336.5 7 330 10.2
2002-12-11 08:11:36 51°14.072 2°55.457 335.8 7 328.9 9.9
2002-12-11 08:11:42 51°14.082 2°55.447 336 7.1 328.3 10
2002-12-11 08:11:48 51°14.093 2°55.438 338.2 7.3 330.7 -999
2002-12-11 08:11:53 51°14.103 2°55.431 340.3 7.6 333.3 -999
2002-12-11 08:11:57 51°14.111 2°55.425 340.3 7.9 335.1 9.8
2002-12-11 08:12:02 51°14.121 2°55.417 339.5 8.2 334.8 9.9
2002-12-11 08:12:07 51°14.132 2°55.408 339.2 8.4 334.5 10.3
2002-12-11 08:12:10 51°14.139 2°55.403 338.3 8.6 333.5 10.3
2002-12-11 08:12:16 51°14.152 2°55.392 336.8 8.9 332.5 10.1
2002-12-11 08:12:22 51°14.165 2°55.38 335.2 9.1 330.8 9.5
2002-12-11 08:12:28 51°14.178 2°55.367 334.3 9.3 329.5 10.2
2002-12-11 08:12:32 51°14.187 2°55.358 333 9.5 328.3 10.3
2002-12-11 08:12:37 51°14.199 2°55.346 330 9.7 326.3 10.2
2002-12-11 08:12:42 51°14.209 2°55.332 326.8 9.8 323.1 10.2
2002-12-11 08:12:46 51°14.217 2°55.321 325 9.8 320.7 10.1
2002-12-11 08:12:52 51°14.23 2°55.303 323.5 10 318.7 10.2
2002-12-11 08:12:57 51°14.24 2°55.287 322 10.1 317.2 10.1
2002-12-11 08:13:01 51°14.248 2°55.275 320.7 10.1 315.6 10.2
2002-12-11 08:13:06 51°14.258 2°55.259 319.2 10.2 314.3 10.1
2002-12-11 08:13:12 51°14.269 2°55.238 318 10.3 312.9 10.2
2002-12-11 08:13:17 51°14.279 2°55.221 316.5 10.3 311.5 10.2
2002-12-11 08:13:21 51°14.286 2°55.207 315.5 10.4 310.3 10.1
2002-12-11 08:13:27 51°14.297 2°55.185 314.8 10.4 309.6 10.2
2002-12-11 08:13:32 51°14.306 2°55.167 314.3 10.4 308.9 10.2
2002-12-11 08:13:37 51°14.315 2°55.149 313.8 10.5 308.3 10.2
2002-12-11 08:13:42 51°14.324 2°55.131 313.3 10.5 307.8 10.2
2002-12-11 08:13:47 51°14.333 2°55.112 312.7 10.5 307.4 10.2
2002-12-11 08:13:52 51°14.342 2°55.093 311.7 10.7 306.3 10.2
2002-12-11 08:13:57 51°14.351 2°55.073 311 10.9 305.6 10.2
2002-12-11 08:14:02 51°14.36 2°55.052 311.2 11.3 305 -999
2002-12-11 08:14:07 51°14.369 2°55.032 311.8 11.5 305.7 10.1
2002-12-11 08:14:12 51°14.379 2°55.011 314 11.7 306.6 10.1
2002-12-11 08:14:16 51°14.388 2°54.995 317.2 11.9 309.5 10.1
2002-12-11 08:14:22 51°14.403 2°54.973 322.7 12 313.6 -999
2002-12-11 08:14:28 51°14.418 2°54.953 328.3 12.1 318.2 10.1
2002-12-11 08:14:32 51°14.43 2°54.941 331.5 12.2 322.9 10.2
2002-12-11 08:14:37 51°14.444 2°54.925 332.3 12.4 324.7 10.1
2002-12-11 08:14:40 51°14.453 2°54.916 333.2 12.6 326.2 10.1
2002-12-11 08:14:46 51°14.47 2°54.897 333.3 12.7 326.7 10.1
2002-12-11 08:14:56 51°14.5 2°54.866 334 12.9 327.2 10
2002-12-11 08:15:02 51°14.519 2°54.847 334 12.9 327.2 10
2002-12-11 08:15:08 51°14.537 2°54.828 333.2 13 326.7 9.9
2002-12-11 08:15:13 51°14.552 2°54.812 333.5 13 326.6 9.8
2002-12-11 08:15:18 51°14.567 2°54.797 333.8 13.1 326.9 9.9
2002-12-11 08:15:23 51°14.582 2°54.782 333.8 13.1 327.3 9.8
2002-12-11 08:15:28 51°14.598 2°54.766 333.7 13.1 327.5 9.8
2002-12-11 08:15:32 51°14.61 2°54.753 334 13.1 327.3 9.8
2002-12-11 08:15:36 51°14.622 2°54.741 333.8 13.1 327.4 9.8
2002-12-11 08:15:41 51°14.637 2°54.725 334 13.1 327 9.8
2002-12-11 08:15:48 51°14.659 2°54.704 333.7 13.1 327.2 9.5
2002-12-11 08:15:53 51°14.674 2°54.689 333.8 12.9 327.1 9.5
2002-12-11 08:15:58 51°14.688 2°54.673 333.2 12.9 327 9.6
2002-12-11 08:16:03 51°14.704 2°54.657 333.7 13 327.8 9.6
2002-12-11 08:16:08 51°14.72 2°54.642 333.8 13.1 328.2 9.7
2002-12-11 08:16:12 51°14.732 2°54.63 334 13.1 328.5 9.9
2002-12-11 08:16:18 51°14.75 2°54.612 333.7 13.2 327.8 9.9
2002-12-11 08:16:23 51°14.766 2°54.596 333.3 13.2 328.1 9.8
2002-12-11 08:16:28 51°14.782 2°54.58 333.3 13.3 328.1 9.8
2002-12-11 08:16:32 51°14.794 2°54.568 333.8 13.3 327.9 9.8
2002-12-11 08:16:38 51°14.813 2°54.549 333.7 13.4 328.3 9.7
2002-12-11 08:16:41 51°14.823 2°54.54 333.3 13.4 328.3 9.6
2002-12-11 08:16:48 51°14.846 2°54.518 333.7 13.6 328.9 9.6
2002-12-11 08:16:53 51°14.862 2°54.502 333.2 13.6 328.8 9.6
2002-12-11 08:16:58 51°14.878 2°54.487 333.3 13.6 328.4 9.6
2002-12-11 08:17:04 51°14.897 2°54.468 333 13.6 328.3 9.6
2002-12-11 08:17:08 51°14.91 2°54.455 333.2 13.7 328.3 9.3
2002-12-11 08:17:13 51°14.926 2°54.439 332.8 13.7 328.2 9.2
2002-12-11 08:17:18 51°14.942 2°54.423 333.2 13.6 328.1 9
2002-12-11 08:17:24 51°14.961 2°54.404 333.3 13.5 328.1 8.9
2002-12-11 08:17:28 51°14.974 2°54.392 333.2 13.6 328.4 8.9
2002-12-11 08:17:33 51°14.99 2°54.376 333 13.6 328.3 8.8
2002-12-11 08:17:38 51°15.006 2°54.361 333.5 13.6 328.6 8.8
2002-12-11 08:17:43 51°15.022 2°54.345 333.5 13.6 328.7 8.9
2002-12-11 08:17:48 51°15.038 2°54.33 333.3 13.6 328.7 8.8
2002-12-11 08:17:52 51°15.051 2°54.317 333.7 13.6 328.4 8.8
2002-12-11 08:17:58 51°15.07 2°54.298 332.8 13.6 328.3 8.8
2002-12-11 08:18:03 51°15.086 2°54.282 333 13.7 328.2 8.9
2002-12-11 08:18:08 51°15.102 2°54.266 333.3 13.7 328.4 8.9
2002-12-11 08:18:13 51°15.118 2°54.25 333.5 13.7 327.8 9
2002-12-11 08:18:18 51°15.134 2°54.233 333 13.7 327.5 9.1
2002-12-11 08:18:24 51°15.153 2°54.213 332.8 13.7 327 9.1
2002-12-11 08:18:28 51°15.166 2°54.2 333.2 13.8 327 9.1
2002-12-11 08:18:32 51°15.179 2°54.187 333 13.8 327.3 9.1
2002-12-11 08:18:38 51°15.198 2°54.168 333.5 13.8 327.6 9.2
2002-12-11 08:18:43 51°15.214 2°54.151 333 13.8 327.7 9.2
2002-12-11 08:18:48 51°15.23 2°54.135 333.7 13.8 327.3 9.3
2002-12-11 08:18:53 51°15.246 2°54.118 333 13.8 327.1 9.4
2002-12-11 08:18:58 51°15.262 2°54.101 333.7 13.8 327.1 9.4
2002-12-11 08:19:04 51°15.282 2°54.081 333.8 13.9 327.1 9.6
2002-12-11 08:19:08 51°15.295 2°54.068 333.7 13.9 327.3 9.7
2002-12-11 08:19:13 51°15.311 2°54.051 333.5 14 327.2 9.9
2002-12-11 08:19:18 51°15.327 2°54.035 333.7 13.9 327.5 9.7
2002-12-11 08:19:23 51°15.344 2°54.018 333.5 14 327.4 9.7
2002-12-11 08:19:28 51°15.36 2°54.001 333.5 14 327.8 9.9
2002-12-11 08:19:32 51°15.373 2°53.988 333.8 14 327.5 10.1
2002-12-11 08:19:38 51°15.393 2°53.969 334 14 327.9 10.1
2002-12-11 08:19:41 51°15.403 2°53.958 334 14 327.4 10.1
2002-12-11 08:19:48 51°15.426 2°53.935 333.5 14 327.4 10.1
2002-12-11 08:19:52 51°15.439 2°53.922 333.7 14 327.7 10.2
2002-12-11 08:19:58 51°15.459 2°53.902 333.8 14.1 327.7 10.3
2002-12-11 08:20:04 51°15.479 2°53.882 333.8 14.1 327.6 10.3
2002-12-11 08:20:08 51°15.492 2°53.869 334 14.1 327.8 10.4
2002-12-11 08:20:13 51°15.508 2°53.853 334.3 14 328.1 10.5
2002-12-11 08:20:18 51°15.525 2°53.836 333.7 14 327.6 10.5
2002-12-11 08:20:21 51°15.535 2°53.826 333.5 14 327.9 10.6
2002-12-11 08:20:28 51°15.557 2°53.803 333 13.9 327.3 10.6
2002-12-11 08:20:33 51°15.573 2°53.786 333.3 13.8 327.2 10.8
2002-12-11 08:20:38 51°15.59 2°53.769 333.3 13.9 326.7 10.7
2002-12-11 08:20:42 51°15.602 2°53.756 333.2 13.8 326.9 10.9
2002-12-11 08:20:48 51°15.622 2°53.736 334.2 13.7 327.7 11
2002-12-11 08:20:51 51°15.632 2°53.726 333.5 13.7 327.7 11.1
2002-12-11 08:20:58 51°15.654 2°53.703 333.5 13.8 327.4 11.2
2002-12-11 08:21:03 51°15.671 2°53.687 333.7 13.9 327.8 11.2
2002-12-11 08:21:08 51°15.687 2°53.67 333.5 13.9 327.8 11.3
2002-12-11 08:21:13 51°15.703 2°53.654 333.7 13.9 328 11.5
2002-12-11 08:21:17 51°15.717 2°53.642 333.7 13.9 328 11.5
2002-12-11 08:21:24 51°15.74 2°53.618 333.3 13.9 327.6 11.5
2002-12-11 08:21:28 51°15.753 2°53.605 333.3 13.9 327.6 11.5
2002-12-11 08:21:33 51°15.768 2°53.589 333.5 13.8 327.4 11.6
2002-12-11 08:21:38 51°15.785 2°53.572 333 13.9 327.4 11.7
2002-12-11 08:21:44 51°15.804 2°53.553 333.3 13.9 327.4 11.7
2002-12-11 08:21:48 51°15.817 2°53.54 333.7 13.8 327.4 11.8
2002-12-11 08:21:52 51°15.83 2°53.526 333.2 13.8 327.3 11.7
2002-12-11 08:21:58 51°15.849 2°53.506 333.7 13.9 327.5 11.8
2002-12-11 08:22:03 51°15.866 2°53.49 334 13.9 327.7 11.8
2002-12-11 08:22:08 51°15.882 2°53.474 334.2 13.9 328.3 11.8
2002-12-11 08:22:12 51°15.895 2°53.46 334.5 13.9 328 12
2002-12-11 08:22:18 51°15.915 2°53.441 334 13.9 328.2 12
2002-12-11 08:22:23 51°15.931 2°53.425 334.2 14 328 12.2
2002-12-11 08:22:28 51°15.948 2°53.408 333.8 14 327.9 12.1
2002-12-11 08:22:33 51°15.964 2°53.391 333.5 14 327.3 12.2
2002-12-11 08:22:38 51°15.98 2°53.375 333.3 13.9 327.7 12.2
2002-12-11 08:22:43 51°15.997 2°53.359 333.7 14 327.8 12.2
2002-12-11 08:22:48 51°16.014 2°53.342 334.2 14 328.1 12.3
2002-12-11 08:22:53 51°16.029 2°53.326 333.8 13.9 327.4 12.4
2002-12-11 08:22:58 51°16.045 2°53.309 333.3 13.9 326.9 12.4
2002-12-11 08:23:03 51°16.062 2°53.293 333.5 13.9 327.1 12.4
2002-12-11 08:23:08 51°16.079 2°53.276 333.7 14 327.7 12.4
2002-12-11 08:23:12 51°16.092 2°53.263 333.8 14 327.9 12.5
2002-12-11 08:23:18 51°16.111 2°53.244 334.2 14 327.8 12.5
2002-12-11 08:23:21 51°16.121 2°53.234 333.3 14 327.2 12.4
2002-12-11 08:23:28 51°16.144 2°53.211 334.3 13.9 327.5 12.4
2002-12-11 08:23:32 51°16.157 2°53.197 333.8 13.9 327.2 12.4
2002-12-11 08:23:38 51°16.176 2°53.177 333.8 13.9 327.2 12.5
2002-12-11 08:23:42 51°16.189 2°53.164 333.3 13.9 327.1 12.4
2002-12-11 08:23:48 51°16.208 2°53.144 333 13.8 326.8 12.5
2002-12-11 08:23:53 51°16.224 2°53.128 333.3 13.8 327.2 12.6
2002-12-11 08:23:58 51°16.241 2°53.111 333.7 13.9 327.5 12.6
2002-12-11 08:24:02 51°16.254 2°53.098 334.7 13.9 327.7 12.7
2002-12-11 08:24:08 51°16.273 2°53.079 334.5 13.8 328 12.7
2002-12-11 08:24:12 51°16.285 2°53.066 333.5 13.8 327.3 12.5
2002-12-11 08:24:18 51°16.305 2°53.046 333.8 13.8 327.8 12.6
2002-12-11 08:24:21 51°16.315 2°53.037 334.2 13.9 327.8 12.6
2002-12-11 08:24:28 51°16.338 2°53.014 334.7 13.9 328.3 12.6
2002-12-11 08:24:32 51°16.351 2°53.001 334.2 13.9 328.1 12.7
2002-12-11 08:24:38 51°16.37 2°52.982 334.2 13.9 328.2 12.7
2002-12-11 08:24:43 51°16.386 2°52.965 333.7 13.9 327.5 12.6
2002-12-11 08:24:48 51°16.403 2°52.949 334 13.9 327.9 12.6
2002-12-11 08:24:52 51°16.416 2°52.936 333.7 13.9 328 12.6
2002-12-11 08:24:58 51°16.436 2°52.917 334.2 14 328.2 12.5
2002-12-11 08:25:02 51°16.449 2°52.903 334 14 328.1 12.5
2002-12-11 08:25:08 51°16.468 2°52.884 333.3 13.9 327.7 12.5
2002-12-11 08:25:13 51°16.485 2°52.867 332.2 13.9 327.2 12.2
2002-12-11 08:25:18 51°16.501 2°52.851 333.3 13.9 327.5 12.2
2002-12-11 08:25:23 51°16.517 2°52.834 334 13.9 327.3 12.1
2002-12-11 08:25:28 51°16.534 2°52.819 334.5 13.9 328.5 12
2002-12-11 08:25:33 51°16.55 2°52.802 333.5 13.9 328 12
2002-12-11 08:25:38 51°16.567 2°52.786 334 13.9 328.4 11.9
2002-12-11 08:25:43 51°16.583 2°52.77 333.7 13.9 328.4 11.9
2002-12-11 08:25:48 51°16.599 2°52.754 334 13.9 328.2 11.7
2002-12-11 08:25:53 51°16.616 2°52.738 334 13.9 328.9 11.4
2002-12-11 08:25:58 51°16.632 2°52.721 334.8 13.9 328.3 11.4
2002-12-11 08:26:03 51°16.65 2°52.707 337 13.9 330.4 11.2
2002-12-11 08:26:08 51°16.666 2°52.691 336.2 13.8 330.4 11.1
2002-12-11 08:26:11 51°16.676 2°52.682 337.2 13.8 330.6 10.9
2002-12-11 08:26:18 51°16.7 2°52.662 337.5 13.8 331.2 10.8
2002-12-11 08:26:22 51°16.714 2°52.65 338.2 13.8 332 10.6
2002-12-11 08:26:28 51°16.734 2°52.633 337.7 13.8 331.7 10.2
2002-12-11 08:26:32 51°16.748 2°52.623 337.5 13.7 332.3 9.8
2002-12-11 08:26:38 51°16.768 2°52.605 338.8 13.7 332.7 10.1
2002-12-11 08:26:43 51°16.785 2°52.594 342 13.7 334.4 10.4
2002-12-11 08:26:48 51°16.803 2°52.583 344.3 13.7 337.5 10.3
2002-12-11 08:26:53 51°16.822 2°52.573 346.3 13.8 339.6 10.2
2002-12-11 08:26:58 51°16.84 2°52.563 348.2 13.9 341.5 10
2002-12-11 08:27:03 51°16.858 2°52.554 348.3 13.8 342 10.1
2002-12-11 08:27:08 51°16.877 2°52.545 349.2 13.8 342.6 10.2
2002-12-11 08:27:12 51°16.891 2°52.537 349.3 13.8 342.2 10.2
2002-12-11 08:27:18 51°16.913 2°52.526 349.5 13.7 342.8 10.5
2002-12-11 08:27:24 51°16.935 2°52.515 348.3 13.6 342.1 10.1
2002-12-11 08:27:28 51°16.95 2°52.508 350 13.7 342.6 9.8
2002-12-11 08:27:33 51°16.968 2°52.5 349.7 13.8 343.6 9.8
2002-12-11 08:27:38 51°16.986 2°52.491 350.3 13.7 344 9.8
2002-12-11 08:27:44 51°17.008 2°52.481 350.2 13.6 343.7 10
2002-12-11 08:27:48 51°17.022 2°52.474 349.5 13.5 343 9.7
2002-12-11 08:27:53 51°17.04 2°52.465 349.7 13.4 343.3 9.8
2002-12-11 08:27:58 51°17.058 2°52.457 349.8 13.5 343.4 9.8
2002-12-11 08:28:03 51°17.076 2°52.448 349.7 13.7 343.5 9.8
2002-12-11 08:28:08 51°17.095 2°52.44 350.3 13.8 343.5 10
2002-12-11 08:28:12 51°17.109 2°52.433 351.2 13.9 344.2 10
2002-12-11 08:28:18 51°17.132 2°52.424 352.3 13.9 345 10.1
2002-12-11 08:28:24 51°17.154 2°52.416 353.2 13.8 346.4 10.2
2002-12-11 08:28:28 51°17.169 2°52.41 353.7 13.8 346.7 10.2
2002-12-11 08:28:32 51°17.184 2°52.405 354 13.8 347.1 10.2
2002-12-11 08:28:38 51°17.207 2°52.396 354 13.9 346.6 10.3
2002-12-11 08:28:42 51°17.222 2°52.391 353.7 13.9 346.9 10.4
2002-12-11 08:28:48 51°17.244 2°52.382 353.7 13.9 346.6 10.4
2002-12-11 08:28:53 51°17.263 2°52.375 353.5 13.9 346.5 10.6
2002-12-11 08:28:58 51°17.282 2°52.368 354 14 346.4 10.6
2002-12-11 08:29:03 51°17.301 2°52.361 353.5 14 346.8 10.4
2002-12-11 08:29:08 51°17.319 2°52.353 353.7 13.9 346.4 10.6
2002-12-11 08:29:13 51°17.338 2°52.346 353.7 13.9 346.3 10.5
2002-12-11 08:29:18 51°17.357 2°52.339 353.5 13.8 346.1 10.6
2002-12-11 08:29:23 51°17.375 2°52.332 353.3 13.8 346.6 10.5
2002-12-11 08:29:28 51°17.394 2°52.324 353.2 13.9 346.4 10.5
2002-12-11 08:29:33 51°17.413 2°52.317 353.3 13.9 346.9 10.6
2002-12-11 08:29:38 51°17.432 2°52.31 353.8 13.9 346.5 10.7
2002-12-11 08:29:43 51°17.45 2°52.302 352.8 13.8 346.3 10.6
2002-12-11 08:29:48 51°17.469 2°52.295 353.2 13.8 346.4 10.6
2002-12-11 08:29:53 51°17.488 2°52.288 353.5 13.8 346.2 10.6
2002-12-11 08:29:58 51°17.507 2°52.281 353.3 13.9 346.4 10.6
2002-12-11 08:30:04 51°17.53 2°52.272 353.7 13.9 346.4 10.8
2002-12-11 08:30:08 51°17.545 2°52.266 353.7 13.9 346.3 10.7
2002-12-11 08:30:13 51°17.563 2°52.258 353.5 13.9 346.2 10.7
2002-12-11 08:30:18 51°17.583 2°52.251 353.2 13.9 346.4 10.7
2002-12-11 08:30:21 51°17.594 2°52.247 353.2 13.9 346.2 10.2
2002-12-11 08:30:28 51°17.619 2°52.236 353 13.8 345.4 10.4
2002-12-11 08:30:33 51°17.637 2°52.229 353.2 13.7 345.3 10.3
2002-12-11 08:30:38 51°17.656 2°52.222 353 13.7 345.8 10.5
2002-12-11 08:30:44 51°17.679 2°52.213 353.5 13.8 346.2 10.7
2002-12-11 08:30:48 51°17.694 2°52.209 355 13.9 347.6 10.7
2002-12-11 08:30:53 51°17.713 2°52.202 355.8 13.9 348.2 10.9
2002-12-11 08:30:58 51°17.732 2°52.196 356.5 13.9 349 10.7
2002-12-11 08:31:03 51°17.751 2°52.19 356.3 13.8 348.9 10.7
2002-12-11 08:31:08 51°17.77 2°52.183 355.2 14 348.4 10.6
2002-12-11 08:31:13 51°17.789 2°52.178 356.5 14 349.1 10.5
2002-12-11 08:31:18 51°17.808 2°52.173 358.5 14 350.5 10.6
2002-12-11 08:31:24 51°17.831 2°52.169   13.9 352.1 10.6
2002-12-11 08:31:28 51°17.846 2°52.166 0.7 13.8 353.1 10.6
2002-12-11 08:31:32 51°17.862 2°52.164 1.2 13.8 353.5 10.6
2002-12-11 08:31:38 51°17.885 2°52.159 1.7 13.8 353.7 10.8
2002-12-11 08:31:43 51°17.904 2°52.157 2.2 13.8 354.5 10.7
2002-12-11 08:31:48 51°17.923 2°52.154 2.2 13.9 354.6 10.6
2002-12-11 08:31:53 51°17.942 2°52.151 2 13.9 354.6 10.8
2002-12-11 08:31:58 51°17.961 2°52.149 2.3 13.7 354.5 10.8
2002-12-11 08:32:04 51°17.984 2°52.146 2.5 13.7 354.3 10.7
2002-12-11 08:32:08 51°17.999 2°52.143 2.2 13.8 354.3 10.7
2002-12-11 08:32:12 51°18.014 2°52.14 2.5 13.9 354.7 10.7
2002-12-11 08:32:18 51°18.037 2°52.137 2.2 13.9 354.5 10.9
2002-12-11 08:32:22 51°18.052 2°52.135 2.7 13.9 354.3 10.8
2002-12-11 08:32:28 51°18.076 2°52.131 4 13.9 354.6 10.9
2002-12-11 08:32:32 51°18.091 2°52.13 5.2 13.9 355.8 10.9
2002-12-11 08:32:38 51°18.114 2°52.129 5.3 14 357.7 11.1
2002-12-11 08:32:43 51°18.133 2°52.128 6.8 13.9 358.1 11
2002-12-11 08:32:48 51°18.153 2°52.13 10 13.9 0.5 11.1
2002-12-11 08:32:53 51°18.172 2°52.132 13 13.8 3.8 11.2
2002-12-11 08:32:58 51°18.191 2°52.138 17.7 13.7 7.7 11
2002-12-11 08:33:04 51°18.213 2°52.148 21.2 13.7 12.3 11
2002-12-11 08:33:08 51°18.227 2°52.155 25.2 13.6 15.8 11.2
2002-12-11 08:33:14 51°18.247 2°52.169 29.2 13.5 19.9 11.1
2002-12-11 08:33:18 51°18.26 2°52.179 33.3 13.3 24.1 11.2
2002-12-11 08:33:23 51°18.276 2°52.193 36.8 13.3 27.3 11.3
2002-12-11 08:33:28 51°18.292 2°52.209 39 13.2 30.3 11.3
2002-12-11 08:33:32 51°18.304 2°52.222 40.2 13.2 32.4 11.4
2002-12-11 08:33:38 51°18.322 2°52.241 41.3 13.3 33.5 11.4
2002-12-11 08:33:43 51°18.337 2°52.258 43.3 13.2 35.2 11.3
2002-12-11 08:33:48 51°18.351 2°52.277 47.2 13.2 37.7 11.3
2002-12-11 08:33:53 51°18.364 2°52.297 49.7 13.2 41.4 11.4
2002-12-11 08:33:58 51°18.377 2°52.318 52.2 13.2 43.9 11.5
2002-12-11 08:34:03 51°18.39 2°52.339 54.3 13.2 45.8 11.4
2002-12-11 08:34:08 51°18.402 2°52.361 56.2 13.2 47.6 11.4
2002-12-11 08:34:13 51°18.414 2°52.383 56.3 13.1 48.5 11.5
2002-12-11 08:34:18 51°18.426 2°52.405 57 13.2 49.5 11.4
2002-12-11 08:34:23 51°18.437 2°52.428 57.5 13 50.7 11.4
2002-12-11 08:34:28 51°18.448 2°52.45 58 13 51 11.3
2002-12-11 08:34:33 51°18.46 2°52.473 57.3 13.2 50.6 11.4
2002-12-11 08:34:38 51°18.471 2°52.496 58.2 13.2 50.9 11.4
2002-12-11 08:34:44 51°18.485 2°52.522 57.7 13.2 50.5 11.4
2002-12-11 08:34:48 51°18.494 2°52.54 58.5 13 51 11.5
2002-12-11 08:34:53 51°18.505 2°52.563 59.2 12.9 51.1 11.5
2002-12-11 08:34:58 51°18.516 2°52.586 59 13 51.5 11.5
2002-12-11 08:35:04 51°18.53 2°52.613 59 13.1 51.4 11.4
2002-12-11 08:35:08 51°18.539 2°52.631 58.7 13.1 51.9 11.5
2002-12-11 08:35:13 51°18.55 2°52.654 58.2 13 51.4 11.5
2002-12-11 08:35:18 51°18.561 2°52.676 59.5 13 51.4 11.6
2002-12-11 08:35:23 51°18.572 2°52.7 61.2 13 53.3 11.6
2002-12-11 08:35:28 51°18.582 2°52.724 62 13 54.3 11.7
2002-12-11 08:35:33 51°18.592 2°52.748 62.3 13.2 55.3 11.7
2002-12-11 08:35:38 51°18.603 2°52.772 63 13.2 55.7 11.7
2002-12-11 08:35:41 51°18.608 2°52.786 63.5 13.1 56 11.6
2002-12-11 08:35:48 51°18.622 2°52.82 63.5 13 56.4 11.7
2002-12-11 08:35:52 51°18.63 2°52.839 63.3 12.9 56.6 11.7
2002-12-11 08:35:57 51°18.639 2°52.862 65 12.8 57.3 11.5
2002-12-11 08:36:03 51°18.651 2°52.891 63.7 12.9 56.7 11.5
2002-12-11 08:36:08 51°18.66 2°52.915 64.2 13 56.7 11.6
2002-12-11 08:36:12 51°18.668 2°52.935 64 13 56.6 11.6
2002-12-11 08:36:18 51°18.679 2°52.964 63.5 13 56.8 11.7
2002-12-11 08:36:23 51°18.688 2°52.988 64.2 13 57.3 11.6
2002-12-11 08:36:28 51°18.698 2°53.012 64.2 13 57.3 11.6
2002-12-11 08:36:32 51°18.706 2°53.031 63.5 13.1 57 11.5
2002-12-11 08:36:38 51°18.718 2°53.06 63.8 13.1 56.7 11.6
2002-12-11 08:36:43 51°18.728 2°53.084 63.8 13.1 56.7 11.6
2002-12-11 08:36:48 51°18.738 2°53.108 64 13 56.7 11.8
2002-12-11 08:36:52 51°18.746 2°53.127 63.8 13 56.6 11.8
2002-12-11 08:36:58 51°18.757 2°53.156 63.7 13 57 11.8
2002-12-11 08:37:03 51°18.768 2°53.18 64 13 56.4 11.9
2002-12-11 08:37:08 51°18.778 2°53.204 63.7 13.1 56.4 11.8
2002-12-11 08:37:13 51°18.787 2°53.229 63.7 13.1 57 11.9
2002-12-11 08:37:18 51°18.797 2°53.253 63.3 13 56.9 11.9
2002-12-11 08:37:24 51°18.808 2°53.281 63.8 12.8 57.2 11.8
2002-12-11 08:37:28 51°18.817 2°53.3 64 12.8 56.7 11.8
2002-12-11 08:37:33 51°18.826 2°53.324 63.5 12.9 56.7 11.8
2002-12-11 08:37:38 51°18.836 2°53.347 63 12.9 56.8 11.8
2002-12-11 08:37:44 51°18.847 2°53.377 64.8 12.8 57.4 11.7
2002-12-11 08:37:48 51°18.855 2°53.396 64.5 12.8 57.6 11.6
2002-12-11 08:37:53 51°18.864 2°53.419 64.2 12.6 56.6 11.6
2002-12-11 08:37:58 51°18.873 2°53.443 63.7 12.6 56.7 11.7
2002-12-11 08:38:04 51°18.885 2°53.471 63.2 12.8 56 11.8
2002-12-11 08:38:08 51°18.893 2°53.491 63.3 13 56.3 11.9
2002-12-11 08:38:12 51°18.901 2°53.51 63.5 12.9 57 12
2002-12-11 08:38:18 51°18.913 2°53.538 63 12.8 56.6 12
2002-12-11 08:38:23 51°18.923 2°53.562 63.5 12.8 56.1 12
2002-12-11 08:38:28 51°18.932 2°53.586 63.5 13 56.6 12
2002-12-11 08:38:33 51°18.942 2°53.61 63.7 13.1 56.5 12.1
2002-12-11 08:38:38 51°18.952 2°53.635 64.7 13.1 57.6 12.1
2002-12-11 08:38:43 51°18.962 2°53.659 65.3 13 58 12.1
2002-12-11 08:38:48 51°18.971 2°53.684 65.7 13.1 58.6 12.1
2002-12-11 08:38:53 51°18.981 2°53.708 65.8 13 58.3 12.1
2002-12-11 08:38:58 51°18.99 2°53.733 66 13 58.8 12.1
2002-12-11 08:39:03 51°18.999 2°53.757 66 13 59 12
2002-12-11 08:39:08 51°19.008 2°53.782 66 13 59 12.1
2002-12-11 08:39:13 51°19.018 2°53.806 65.8 13 58.5 12
2002-12-11 08:39:18 51°19.027 2°53.831 66.3 13 58.8 11.9
2002-12-11 08:39:24 51°19.038 2°53.861 65.7 13 58.6 11.9
2002-12-11 08:39:28 51°19.046 2°53.88 65.7 13 58.2 12
2002-12-11 08:39:33 51°19.055 2°53.905 65.7 13 59.1 12
2002-12-11 08:39:38 51°19.065 2°53.93 65.8 13 58.9 12.1
2002-12-11 08:39:42 51°19.072 2°53.95 65.7 13 59.3 12.1
2002-12-11 08:39:48 51°19.083 2°53.979 66.8 13 59.2 12
2002-12-11 08:39:52 51°19.09 2°53.999 66.2 13 59.5 11.9
2002-12-11 08:39:58 51°19.102 2°54.028 65.3 12.9 58.3 12
2002-12-11 08:40:04 51°19.113 2°54.057 64.8 12.9 58.7 12
2002-12-11 08:40:08 51°19.121 2°54.076 65 12.9 57.7 12
2002-12-11 08:40:13 51°19.13 2°54.101 64.5 13 58.2 12
2002-12-11 08:40:18 51°19.14 2°54.125 64.7 13 57.5 12
2002-12-11 08:40:21 51°19.146 2°54.139 64.7 13 58.2 11.9
2002-12-11 08:40:28 51°19.159 2°54.172 64.3 12.8 57.6 11.5
2002-12-11 08:40:32 51°19.167 2°54.192 64.5 12.8 58.2 11.9
2002-12-11 08:40:38 51°19.178 2°54.221 64.8 12.8 57.5 12
2002-12-11 08:40:43 51°19.187 2°54.246 65.5 12.8 57.9 12.1
2002-12-11 08:40:48 51°19.197 2°54.27 64.7 12.9 57.3 12.1
2002-12-11 08:40:53 51°19.207 2°54.294 64.8 13 57.4 12.2
2002-12-11 08:40:58 51°19.217 2°54.318 64.7 13 57.6 12.1
2002-12-11 08:41:03 51°19.227 2°54.342 64.8 12.9 58.1 12.2
2002-12-11 08:41:08 51°19.236 2°54.366 64.2 12.9 57.7 12.2
2002-12-11 08:41:12 51°19.245 2°54.385 64.7 12.9 57.1 12.2
2002-12-11 08:41:18 51°19.256 2°54.414 64.5 12.9 56.8 12.2
2002-12-11 08:41:23 51°19.266 2°54.438 64.3 12.9 57 12.2
2002-12-11 08:41:28 51°19.275 2°54.462 65 12.9 57.3 12.1
2002-12-11 08:41:33 51°19.285 2°54.487 65 12.9 57.6 12.1
2002-12-11 08:41:38 51°19.295 2°54.511 64.8 13 57.6 12.1
2002-12-11 08:41:43 51°19.305 2°54.535 64.5 13 57.4 12.1
2002-12-11 08:41:48 51°19.314 2°54.559 64.7 12.9 57.8 12.1
2002-12-11 08:41:53 51°19.323 2°54.583 65.3 12.8 57.9 12.1
2002-12-11 08:41:58 51°19.333 2°54.608 65.5 12.8 58 12.1
2002-12-11 08:42:03 51°19.343 2°54.631 64.5 12.9 56.8 12.1
2002-12-11 08:42:08 51°19.353 2°54.655 64.2 12.9 56.8 12.2
2002-12-11 08:42:14 51°19.365 2°54.684 64.2 13 56.3 12.2
2002-12-11 08:42:18 51°19.372 2°54.704 64.8 12.9 57.5 12.1
2002-12-11 08:42:23 51°19.382 2°54.727 64.7 12.9 57.7 12.2
2002-12-11 08:42:28 51°19.392 2°54.752 64.5 12.9 57.6 12.2
2002-12-11 08:42:32 51°19.399 2°54.771 64.5 12.9 58.1 12.1
2002-12-11 08:42:38 51°19.41 2°54.8 65.2 12.9 58.2 11.9
2002-12-11 08:42:43 51°19.42 2°54.824 65.2 12.8 57.8 12
2002-12-11 08:42:48 51°19.43 2°54.848 65 12.8 57.6 12
2002-12-11 08:42:53 51°19.44 2°54.872 64.7 12.9 57.1 12.2
2002-12-11 08:42:58 51°19.449 2°54.896 65.2 13 57.6 12.2
2002-12-11 08:43:04 51°19.461 2°54.925 64.2 13 56.9 12.4
2002-12-11 08:43:08 51°19.468 2°54.945 64.8 13 57.8 12.4
2002-12-11 08:43:12 51°19.477 2°54.964 64.8 13 57.2 12.4
2002-12-11 08:43:18 51°19.488 2°54.993 65.2 13.1 57.5 12.3
2002-12-11 08:43:24 51°19.5 2°55.023 64.8 13.1 57.4 12.3
2002-12-11 08:43:28 51°19.508 2°55.043 65 13.1 57.6 12.3
2002-12-11 08:43:33 51°19.518 2°55.066 65 13.1 57 12.3
2002-12-11 08:43:38 51°19.527 2°55.091 65 13.1 57.5 12.2
2002-12-11 08:43:44 51°19.539 2°55.12 64.7 13.1 57.2 12.2
2002-12-11 08:43:48 51°19.547 2°55.14 65 13.1 57.6 12.2
2002-12-11 08:43:53 51°19.557 2°55.164 65 13.1 57.7 12.2
2002-12-11 08:43:58 51°19.567 2°55.188 64.5 13.1 56.7 12.3
2002-12-11 08:44:04 51°19.579 2°55.218 65.3 13 57.6 12.2
2002-12-11 08:44:08 51°19.587 2°55.236 64.3 13.1 56.5 12.2
2002-12-11 08:44:13 51°19.596 2°55.261 64.7 13 57.7 12.2
2002-12-11 08:44:18 51°19.606 2°55.285 64.2 13 57 12.2
2002-12-11 08:44:23 51°19.616 2°55.309 64.7 13 57.1 12.2
2002-12-11 08:44:28 51°19.626 2°55.333 64.8 13 56.9 12.2
2002-12-11 08:44:33 51°19.635 2°55.358 64.7 13 57.3 12.3
2002-12-11 08:44:38 51°19.645 2°55.381 65 12.9 57.1 12.3
2002-12-11 08:44:43 51°19.655 2°55.406 65.2 13 57.1 12.3
2002-12-11 08:44:48 51°19.665 2°55.43 64.7 13.1 56.8 12.3
2002-12-11 08:44:54 51°19.677 2°55.46 64.8 13.1 57.2 12.3
2002-12-11 08:44:58 51°19.685 2°55.479 64.8 13.1 57 12.3
2002-12-11 08:45:03 51°19.695 2°55.503 64.7 13 56.9 12.2
2002-12-11 08:45:08 51°19.705 2°55.527 64.8 13 56.8 12.2
2002-12-11 08:45:13 51°19.714 2°55.551 65.2 13 56.8 12.2
2002-12-11 08:45:18 51°19.725 2°55.575 64.8 13.1 56.6 12.2
2002-12-11 08:45:23 51°19.734 2°55.599 64.8 13.1 56.9 12.2
2002-12-11 08:45:28 51°19.744 2°55.624 64.8 13.1 57.1 12.2
2002-12-11 08:45:34 51°19.756 2°55.653 65 13 57.2 12.2
2002-12-11 08:45:38 51°19.764 2°55.673 64.5 13 57 12.2
2002-12-11 08:45:43 51°19.774 2°55.696 64.3 13 56.5 12.3
2002-12-11 08:45:48 51°19.784 2°55.721 65 13.1 57.4 12.3
2002-12-11 08:45:54 51°19.796 2°55.75 65 13.1 56.7 12.3
2002-12-11 08:45:58 51°19.804 2°55.769 64.7 13 57.2 12.3
2002-12-11 08:46:03 51°19.814 2°55.793 64.3 13.1 56.5 12.3
2002-12-11 08:46:08 51°19.824 2°55.818 65 13.1 57.1 12.3
2002-12-11 08:46:13 51°19.833 2°55.842 65 13 57.1 12.2
2002-12-11 08:46:18 51°19.842 2°55.867 65.7 13 57.8 12.3
2002-12-11 08:46:23 51°19.852 2°55.891 65 13 57.5 12.3
2002-12-11 08:46:28 51°19.861 2°55.915 65.7 13 57.8 12.3
2002-12-11 08:46:32 51°19.869 2°55.934 65 13 57.5 12.2
2002-12-11 08:46:38 51°19.881 2°55.964 64.7 12.9 57.1 12.3
2002-12-11 08:46:43 51°19.891 2°55.988 65.3 12.9 57.1 12.2
2002-12-11 08:46:48 51°19.901 2°56.011 65.2 12.8 57 12.3
2002-12-11 08:46:52 51°19.908 2°56.03 65.5 12.8 57.5 12.2
2002-12-11 08:46:58 51°19.92 2°56.059 65.3 12.7 57.3 12.2
2002-12-11 08:47:03 51°19.93 2°56.083 64.7 12.7 56.7 12.2
2002-12-11 08:47:08 51°19.94 2°56.107 64.8 12.9 56.7 12.2
2002-12-11 08:47:13 51°19.95 2°56.13 64.5 12.9 56.2 12.3
2002-12-11 08:47:18 51°19.96 2°56.154 64.8 12.8 56.2 12.4
2002-12-11 08:47:23 51°19.969 2°56.177 64.2 12.8 56.5 12.3
2002-12-11 08:47:28 51°19.979 2°56.202 64.5 12.8 56.8 12.3
2002-12-11 08:47:32 51°19.987 2°56.221 64.5 12.8 57 12.2
2002-12-11 08:47:38 51°19.999 2°56.25 64 12.9 56.7 12.2
2002-12-11 08:47:41 51°20.004 2°56.264 64.3 12.8 57.3 12.2
2002-12-11 08:47:48 51°20.018 2°56.297 64.2 12.7 57 12.2
2002-12-11 08:47:53 51°20.028 2°56.32 64.2 12.7 56.6 12.2
2002-12-11 08:47:58 51°20.038 2°56.344 64.7 12.8 56.2 12.2
2002-12-11 08:48:03 51°20.048 2°56.368 64.5 12.9 56.5 12.3
2002-12-11 08:48:08 51°20.058 2°56.391 64.5 12.9 56.5 12.3
2002-12-11 08:48:11 51°20.064 2°56.406 64.8 12.9 56.7 12.3
2002-12-11 08:48:18 51°20.077 2°56.439 65.2 12.8 56.5 12.3
2002-12-11 08:48:23 51°20.087 2°56.463 64.8 12.9 56.9 12.3
2002-12-11 08:48:28 51°20.097 2°56.487 64.5 13 56.8 12.3
2002-12-11 08:48:32 51°20.104 2°56.507 66.3 13.1 57.5 12.2
2002-12-11 08:48:38 51°20.113 2°56.538 68.8 13 60.9 12.3
2002-12-11 08:48:43 51°20.12 2°56.563 72.8 12.8 64.1 12.3
2002-12-11 08:48:48 51°20.126 2°56.59 75.7 12.8 68 12.1
2002-12-11 08:48:53 51°20.132 2°56.617 78.8 12.8 70.7 12.1
2002-12-11 08:48:58 51°20.136 2°56.644 82.5 12.7 75 12.2
2002-12-11 08:49:04 51°20.14 2°56.678 85.8 12.7 77.7 12
2002-12-11 08:49:08 51°20.143 2°56.7 86.2 12.7 79.6 12
2002-12-11 08:49:14 51°20.148 2°56.733 84.3 12.7 78.7 12.1
2002-12-11 08:49:18 51°20.151 2°56.755 82.3 12.7 76.7 12.2
2002-12-11 08:49:23 51°20.156 2°56.782 82 12.7 75.4 12.1
2002-12-11 08:49:28 51°20.161 2°56.809 80.7 12.8 75 12
2002-12-11 08:49:32 51°20.165 2°56.831 80.5 12.8 73.8 12.1
2002-12-11 08:49:38 51°20.171 2°56.864 80 12.8 73.4 12.1
2002-12-11 08:49:43 51°20.177 2°56.89 78.7 12.8 72 12
2002-12-11 08:49:48 51°20.182 2°56.918 78.5 12.9 71.9 12.1
2002-12-11 08:49:53 51°20.189 2°56.944 78.3 12.9 71.1 12.1
2002-12-11 08:49:58 51°20.194 2°56.971 78.3 12.8 70.8 12
2002-12-11 08:50:04 51°20.201 2°57.004 77.7 12.8 70.8 12
2002-12-11 08:50:08 51°20.205 2°57.026 78.2 12.9 71 12
2002-12-11 08:50:14 51°20.212 2°57.058 78.7 12.9 71.6 12
2002-12-11 08:50:18 51°20.216 2°57.08 79.5 12.9 72.1 12.1
2002-12-11 08:50:22 51°20.22 2°57.102 79.5 12.9 72.7 12
2002-12-11 08:50:28 51°20.227 2°57.134 79.7 12.9 72.7 12
2002-12-11 08:50:32 51°20.231 2°57.156 80.2 12.8 72.7 11.8
2002-12-11 08:50:38 51°20.237 2°57.188 80.2 12.8 73.6 11.8
2002-12-11 08:50:42 51°20.242 2°57.21 79.3 12.8 72.8 11.9
2002-12-11 08:50:48 51°20.248 2°57.242 79.2 12.8 72.2 11.8
2002-12-11 08:50:53 51°20.253 2°57.269 79.8 12.7 72.7 11.8
2002-12-11 08:50:58 51°20.258 2°57.297 79.3 12.7 72.6 11.7
2002-12-11 08:51:03 51°20.264 2°57.324 79 12.8 72.3 11.7
2002-12-11 08:51:08 51°20.269 2°57.35 80 12.7 72.2 11.8
2002-12-11 08:51:13 51°20.274 2°57.377 80.5 12.7 73 11.7
2002-12-11 08:51:18 51°20.28 2°57.405 79 12.9 72.2 11.7
2002-12-11 08:51:24 51°20.286 2°57.437 80 12.8 72.6 11.8
2002-12-11 08:51:28 51°20.29 2°57.458 79.7 12.7 72.5 11.7
2002-12-11 08:51:33 51°20.296 2°57.485 78.8 12.7 72.1 11.7
2002-12-11 08:51:38 51°20.301 2°57.512 78.3 12.8 72 11.7
2002-12-11 08:51:44 51°20.308 2°57.544 78.8 12.8 71.4 11.7
2002-12-11 08:51:48 51°20.312 2°57.566 79 12.8 72.8 11.7
2002-12-11 08:51:52 51°20.318 2°57.588 78.5 12.8 71.2 11.7
2002-12-11 08:51:57 51°20.322 2°57.615 79.2 12.8 72.4 11.7
2002-12-11 08:52:04 51°20.331 2°57.652 78.7 12.8 71.5 11.6
2002-12-11 08:52:08 51°20.335 2°57.674 78.7 12.8 72.2 11.6
2002-12-11 08:52:13 51°20.34 2°57.701 79.5 12.7 72.3 11.6
2002-12-11 08:52:18 51°20.346 2°57.728 79 12.7 72.1 11.5
2002-12-11 08:52:22 51°20.351 2°57.749 78.8 12.8 71.9 11.5
2002-12-11 08:52:28 51°20.357 2°57.781 79.7 12.8 71.3 11.5
2002-12-11 08:52:33 51°20.362 2°57.809 79.7 12.7 72.3 11.5
2002-12-11 08:52:38 51°20.368 2°57.836 78.8 12.8 71.7 11.6
2002-12-11 08:52:44 51°20.374 2°57.868 78.8 12.8 72.2 11.6
2002-12-11 08:52:48 51°20.379 2°57.889 78.8 12.8 72 11.6
2002-12-11 08:52:53 51°20.384 2°57.917 79.3 12.7 72.5 11.6
2002-12-11 08:52:58 51°20.389 2°57.944 79.8 12.7 72.7 11.6
2002-12-11 08:53:03 51°20.395 2°57.971 79.3 12.8 72.5 11.5
2002-12-11 08:53:08 51°20.4 2°57.998 78.8 12.9 72.3 11.5
2002-12-11 08:53:13 51°20.406 2°58.025 78.7 12.8 72.2 11.5
2002-12-11 08:53:18 51°20.411 2°58.052 79.3 12.7 72 11.5
2002-12-11 08:53:23 51°20.417 2°58.078 78.5 12.7 71.7 11.5
2002-12-11 08:53:28 51°20.423 2°58.105 78.7 12.8 71.3 11.5
2002-12-11 08:53:33 51°20.428 2°58.132 78.8 12.7 71.9 11.4
2002-12-11 08:53:38 51°20.434 2°58.159 78.7 12.8 71.4 11.4
2002-12-11 08:53:43 51°20.439 2°58.186 78.5 12.8 72.5 11.5
2002-12-11 08:53:48 51°20.445 2°58.212 78.8 12.7 71.3 11.4
2002-12-11 08:53:53 51°20.449 2°58.239 80 12.6 73.3 11.4
2002-12-11 08:53:58 51°20.455 2°58.266 78.2 12.7 71.7 11.3
2002-12-11 08:54:03 51°20.46 2°58.292 78.7 12.7 71.9 11.3
2002-12-11 08:54:08 51°20.466 2°58.319 78.8 12.6 71.7 11.3
2002-12-11 08:54:13 51°20.471 2°58.346 78.5 12.7 72.3 11.3
2002-12-11 08:54:18 51°20.477 2°58.372 78.5 12.5 72 11.4
2002-12-11 08:54:23 51°20.482 2°58.399 78.8 12.5 72.8 11.4
2002-12-11 08:54:28 51°20.488 2°58.425 78.3 12.5 71.2 11.3
2002-12-11 08:54:33 51°20.493 2°58.452 78.3 12.6 72.2 11.4
2002-12-11 08:54:38 51°20.499 2°58.477 78.8 12.5 71.1 11.4
2002-12-11 08:54:43 51°20.504 2°58.504 78.8 12.5 72.4 11.4
2002-12-11 08:54:48 51°20.51 2°58.53 78.5 12.5 71.6 11.4
2002-12-11 08:54:52 51°20.514 2°58.552 78.2 12.5 71.7 11.4
2002-12-11 08:54:58 51°20.52 2°58.583 79.2 12.5 72.4 11.4
2002-12-11 08:55:04 51°20.527 2°58.615 78.8 12.5 72 11.5
2002-12-11 08:55:08 51°20.531 2°58.637 79.2 12.5 72.1 11.4
2002-12-11 08:55:13 51°20.537 2°58.663 78.8 12.6 72.1 11.4
2002-12-11 08:55:18 51°20.542 2°58.69 79 12.6 72 11.3
2002-12-11 08:55:23 51°20.548 2°58.717 78.7 12.6 72.2 11.3
2002-12-11 08:55:28 51°20.553 2°58.744 78.5 12.5 71.9 11.4
2002-12-11 08:55:33 51°20.559 2°58.77 79 12.5 71.7 11.3
2002-12-11 08:55:38 51°20.565 2°58.797 78.8 12.6 72.1 11.4
2002-12-11 08:55:44 51°20.571 2°58.829 78.5 12.7 71.3 11.3
2002-12-11 08:55:48 51°20.576 2°58.85 78 12.8 71.4 11.3
2002-12-11 08:55:53 51°20.58 2°58.877 78.7 12.7 71.9 11.3
2002-12-11 08:55:57 51°20.585 2°58.898 78.7 12.6 71.7 11.2
2002-12-11 08:56:03 51°20.591 2°58.93 78.3 12.7 72.3 11.2
2002-12-11 08:56:08 51°20.598 2°58.957 78.3 12.7 71.6 11.2
2002-12-11 08:56:13 51°20.602 2°58.983 79.2 12.6 72.3 11.3
2002-12-11 08:56:18 51°20.608 2°59.01 78.8 12.6 72.2 11.3
2002-12-11 08:56:23 51°20.613 2°59.037 79.2 12.6 72.3 11.2
2002-12-11 08:56:28 51°20.619 2°59.064 78 12.7 71.9 11.3
2002-12-11 08:56:32 51°20.623 2°59.085 78.3 12.7 71.6 11.3
2002-12-11 08:56:38 51°20.63 2°59.117 79.3 12.9 71.4 11.2
2002-12-11 08:56:43 51°20.636 2°59.143 78.5 12.9 70.3 11.1
2002-12-11 08:56:49 51°20.642 2°59.175 78.8 12.7 71.3 11.2
2002-12-11 08:56:53 51°20.646 2°59.197 79.2 12.7 71.8 11.2
2002-12-11 08:56:58 51°20.652 2°59.224 78.7 12.7 71.6 11.2
2002-12-11 08:57:03 51°20.658 2°59.25 79 12.7 71.9 11.3
2002-12-11 08:57:08 51°20.663 2°59.276 79.7 12.6 72 11.2
2002-12-11 08:57:14 51°20.669 2°59.308 78.8 12.6 71.7 11.2
2002-12-11 08:57:18 51°20.673 2°59.33 78.3 12.8 71.9 11.2
2002-12-11 08:57:23 51°20.679 2°59.356 78.8 12.7 71.6 11.2
2002-12-11 08:57:28 51°20.684 2°59.383 79.2 12.6 72 11.2
2002-12-11 08:57:34 51°20.69 2°59.416 79.5 12.6 72.1 11.1
2002-12-11 08:57:38 51°20.695 2°59.437 78.8 12.7 71.6 11.2
2002-12-11 08:57:42 51°20.7 2°59.458 79 12.7 71.9 11
2002-12-11 08:57:48 51°20.707 2°59.49 79.2 12.7 71.8 11.1
2002-12-11 08:57:53 51°20.713 2°59.518 78.3 12.8 71.2 11.1
2002-12-11 08:57:57 51°20.717 2°59.539 79 12.7 72 11.1
2002-12-11 08:58:04 51°20.725 2°59.576 79.3 12.6 71.9 11.1
2002-12-11 08:58:08 51°20.729 2°59.598 79 12.7 71.6 11
2002-12-11 08:58:12 51°20.734 2°59.619 78.3 12.8 71.3 11.1
2002-12-11 08:58:18 51°20.74 2°59.651 78.8 12.7 72.5 11.3
2002-12-11 08:58:23 51°20.745 2°59.678 79.8 12.6 73.5 11.3
2002-12-11 08:58:28 51°20.75 2°59.705 79.2 12.6 73.3 11.2
2002-12-11 08:58:32 51°20.754 2°59.726 78.7 12.7 71.9 11
2002-12-11 08:58:38 51°20.761 2°59.758 78.7 12.7 71 11
2002-12-11 08:58:44 51°20.767 2°59.79 78.8 12.7 71.8 10.9
2002-12-11 08:58:48 51°20.772 2°59.812 79.2 12.6 72.1 11
2002-12-11 08:58:53 51°20.777 2°59.838 78.7 12.7 72.1 11
2002-12-11 08:58:57 51°20.782 2°59.859 78.3 12.7 71.3 11
2002-12-11 08:59:02 51°20.787 2°59.886 77.8 12.7 71.4 10.9
2002-12-11 08:59:08 51°20.794 2°59.917 78.8 12.6 71.7 10.9
2002-12-11 08:59:13 51°20.799 2°59.944 79.3 12.6 72.3 10.9
2002-12-11 08:59:18 51°20.805 2°59.971 78.7 12.6 72.6 10.9
2002-12-11 08:59:23 51°20.811 2°59.997 78.7 12.7 71.2 10.9
2002-12-11 08:59:28 51°20.815 3°0.024 79 12.6 72.7 10.9
2002-12-11 08:59:34 51°20.822 3°0.056 78.8 12.6 71.8 10.9
2002-12-11 08:59:38 51°20.826 3°0.077 79 12.6 72.5 10.8
2002-12-11 08:59:43 51°20.832 3°0.104 79.3 12.6 72.4 10.8
2002-12-11 08:59:48 51°20.837 3°0.13 79.3 12.6 72.4 10.9
2002-12-11 08:59:53 51°20.842 3°0.157 79.5 12.6 72.5 10.9
2002-12-11 08:59:56 51°20.845 3°0.173 78.5 12.6 71.8 11
2002-12-11 09:00:04 51°20.854 3°0.216 78.3 12.6 72.4 11
2002-12-11 09:00:08 51°20.858 3°0.237 78.3 12.6 71.8 10.9
2002-12-11 09:00:13 51°20.862 3°0.264 78.5 12.6 73.2 10.7
2002-12-11 09:00:18 51°20.868 3°0.29 78.3 12.6 72.8 10.6
2002-12-11 09:00:23 51°20.874 3°0.316 77.5 12.5 72.3 10.6
2002-12-11 09:00:28 51°20.879 3°0.342 78.2 12.5 70.9 10.7
2002-12-11 09:00:33 51°20.885 3°0.368 78.3 12.5 71.2 10.9
2002-12-11 09:00:38 51°20.89 3°0.394 78.3 12.6 70.9 11.1
2002-12-11 09:00:43 51°20.895 3°0.42 78.8 12.6 71.3 11.1
2002-12-11 09:00:48 51°20.901 3°0.447 78.7 12.6 71.6 11.1
2002-12-11 09:00:53 51°20.907 3°0.474 79 12.7 71.5 11
2002-12-11 09:00:56 51°20.91 3°0.49 78.5 12.7 72 11
2002-12-11 09:01:04 51°20.918 3°0.533 79.7 12.7 71.7 11
2002-12-11 09:01:08 51°20.923 3°0.554 78.7 12.6 72.3 11
2002-12-11 09:01:12 51°20.927 3°0.575 78.8 12.7 71.7 11
2002-12-11 09:01:18 51°20.934 3°0.607 78.2 12.7 72.1 11
2002-12-11 09:01:23 51°20.939 3°0.634 79.2 12.6 72.2 11
2002-12-11 09:01:28 51°20.944 3°0.66 78.8 12.6 72.2 11
2002-12-11 09:01:33 51°20.95 3°0.687 79 12.6 71.2 10.9
2002-12-11 09:01:38 51°20.955 3°0.714 78.8 12.7 72 10.9
2002-12-11 09:01:42 51°20.959 3°0.735 78.3 12.6 71.7 10.9
2002-12-11 09:01:48 51°20.965 3°0.767 79 12.5 72.9 10.8
2002-12-11 09:01:52 51°20.97 3°0.788 78.2 12.7 71.9 10.8
2002-12-11 09:01:58 51°20.977 3°0.82 78.3 12.7 70.9 10.8
2002-12-11 09:02:04 51°20.983 3°0.852 79.2 12.6 71.6 10.8
2002-12-11 09:02:08 51°20.988 3°0.873 79.3 12.6 71.6 10.8
2002-12-11 09:02:13 51°20.992 3°0.899 79.2 12.6 72.3 10.7
2002-12-11 09:02:18 51°20.998 3°0.926 79.5 12.6 71.9 10.5
2002-12-11 09:02:24 51°21.005 3°0.957 79 12.6 71.9 10.5
2002-12-11 09:02:28 51°21.01 3°0.978 77.5 12.7 70.4 10.6
2002-12-11 09:02:33 51°21.015 3°1.004 78.8 12.5 70.7 10.8
2002-12-11 09:02:38 51°21.021 3°1.031 78.8 12.4 70.9 10.8
2002-12-11 09:02:43 51°21.027 3°1.057 78.3 12.5 70.8 10.9
2002-12-11 09:02:48 51°21.033 3°1.084 78.3 12.6 71.2 10.9
2002-12-11 09:02:52 51°21.037 3°1.106 78.8 12.6 71.7 11
2002-12-11 09:02:58 51°21.042 3°1.137 78.5 12.5 72.5 10.9
2002-12-11 09:03:03 51°21.048 3°1.163 78.8 12.6 71.7 11
2002-12-11 09:03:08 51°21.054 3°1.189 78.8 12.6 71.4 10.9
2002-12-11 09:03:12 51°21.058 3°1.21 78.7 12.6 71.3 10.8
2002-12-11 09:03:18 51°21.064 3°1.242 78.7 12.6 72 10.8
2002-12-11 09:03:22 51°21.069 3°1.263 79 12.6 71.5 10.7
2002-12-11 09:03:28 51°21.074 3°1.295 79.3 12.5 72.5 10.8
2002-12-11 09:03:33 51°21.081 3°1.32 78.8 12.4 71.5 10.9
2002-12-11 09:03:38 51°21.086 3°1.348 79 12.4 72.3 10.9
2002-12-11 09:03:42 51°21.091 3°1.369 78.3 12.5 71.7 10.9
2002-12-11 09:03:48 51°21.097 3°1.401 78.5 12.6 71.5 11
2002-12-11 09:03:53 51°21.103 3°1.427 78.7 12.5 71.5 10.9
2002-12-11 09:03:58 51°21.108 3°1.454 78.7 12.6 71.7 10.9
2002-12-11 09:04:04 51°21.115 3°1.486 78.8 12.7 71.3 10.9
2002-12-11 09:04:08 51°21.119 3°1.507 78.3 12.7 71.9 10.9
2002-12-11 09:04:13 51°21.125 3°1.533 79 12.6 71.7 10.9
2002-12-11 09:04:16 51°21.128 3°1.549 79.3 12.5 72.2 10.8
2002-12-11 09:04:24 51°21.136 3°1.592 78.8 12.5 71.9 10.8
2002-12-11 09:04:28 51°21.141 3°1.612 78.8 12.6 71.4 10.8
2002-12-11 09:04:33 51°21.146 3°1.639 79 12.5 71.9 10.8
2002-12-11 09:04:37 51°21.15 3°1.66 79.5 12.5 72.1 10.7
2002-12-11 09:04:43 51°21.157 3°1.692 79 12.6 71.8 10.8
2002-12-11 09:04:48 51°21.163 3°1.718 78.7 12.6 70.9 10.8
2002-12-11 09:04:52 51°21.167 3°1.739 79 12.6 71.3 10.8
2002-12-11 09:04:58 51°21.174 3°1.77 79.2 12.4 71.4 10.8
2002-12-11 09:05:04 51°21.18 3°1.802 78.3 12.4 71.7 10.8
2002-12-11 09:05:08 51°21.184 3°1.823 79.3 12.4 72.5 10.8
2002-12-11 09:05:13 51°21.19 3°1.85 78.3 12.5 71.6 10.8
2002-12-11 09:05:18 51°21.195 3°1.876 79.2 12.4 71.4 10.8
2002-12-11 09:05:24 51°21.201 3°1.907 78.7 12.4 72.1 10.8
2002-12-11 09:05:28 51°21.205 3°1.929 78.5 12.5 72.1 10.9
2002-12-11 09:05:33 51°21.212 3°1.955 78.3 12.6 71.6 10.9
2002-12-11 09:05:38 51°21.217 3°1.981 79 12.5 71.1 10.9
2002-12-11 09:05:42 51°21.221 3°2.002 78.7 12.4 72.4 10.9
2002-12-11 09:05:48 51°21.228 3°2.033 78.8 12.5 71 10.9
2002-12-11 09:05:52 51°21.231 3°2.055 79 12.4 72.6 10.9
2002-12-11 09:05:58 51°21.238 3°2.086 78.7 12.5 71.6 10.9
2002-12-11 09:06:04 51°21.244 3°2.117 79.5 12.4 72.5 10.8
2002-12-11 09:06:08 51°21.248 3°2.138 79.8 12.3 72.5 10.8
2002-12-11 09:06:13 51°21.255 3°2.164 77.8 12.5 71.2 10.8
2002-12-11 09:06:18 51°21.26 3°2.19 78.3 12.5 71.4 10.8
2002-12-11 09:06:24 51°21.267 3°2.221 78.5 12.5 71.1 10.9
2002-12-11 09:06:28 51°21.27 3°2.243 79.3 12.4 72.1 10.9
2002-12-11 09:06:33 51°21.276 3°2.268 78 12.5 71.5 11
2002-12-11 09:06:38 51°21.282 3°2.295 78.8 12.5 71.7 11
2002-12-11 09:06:44 51°21.289 3°2.326 78.5 12.4 71.5 11
2002-12-11 09:06:48 51°21.293 3°2.347 78.5 12.4 71.7 11
2002-12-11 09:06:52 51°21.297 3°2.368 79 12.4 71.8 11
2002-12-11 09:06:58 51°21.303 3°2.399 78.5 12.5 71.9 10.9
2002-12-11 09:07:02 51°21.308 3°2.42 79 12.5 71.3 10.9
2002-12-11 09:07:08 51°21.315 3°2.452 78.3 12.5 71.1 10.9
2002-12-11 09:07:13 51°21.321 3°2.478 78.7 12.4 71.6 10.9
2002-12-11 09:07:18 51°21.326 3°2.504 78 12.4 71.9 10.9
2002-12-11 09:07:24 51°21.333 3°2.535 78.5 12.4 71.5 10.9
2002-12-11 09:07:28 51°21.337 3°2.556 78.8 12.4 71.8 10.9
2002-12-11 09:07:32 51°21.341 3°2.577 78.8 12.5 72.3 10.8
2002-12-11 09:07:38 51°21.347 3°2.609 79.2 12.5 72.1 10.8
2002-12-11 09:07:44 51°21.353 3°2.64 79.5 12.3 72.4 10.8
2002-12-11 09:07:48 51°21.358 3°2.661 78.7 12.4 71.8 10.9
2002-12-11 09:07:53 51°21.363 3°2.686 78.7 12.4 71.3 10.9
2002-12-11 09:07:58 51°21.368 3°2.712 79.3 12.3 71.8 10.9
2002-12-11 09:08:04 51°21.375 3°2.744 79 12.5 71.8 10.9
2002-12-11 09:08:08 51°21.38 3°2.765 78.8 12.5 71.5 11
2002-12-11 09:08:12 51°21.384 3°2.786 79.2 12.5 72.2 11
2002-12-11 09:08:18 51°21.39 3°2.818 79 12.4 71.4 10.9
2002-12-11 09:08:23 51°21.396 3°2.844 78.5 12.4 72 10.9
2002-12-11 09:08:28 51°21.401 3°2.87 78.7 12.4 71.7 10.8
2002-12-11 09:08:32 51°21.405 3°2.891 78.5 12.5 72 10.8
2002-12-11 09:08:38 51°21.412 3°2.922 78.2 12.5 71.3 10.9
2002-12-11 09:08:42 51°21.416 3°2.943 78.3 12.5 71.2 10.9
2002-12-11 09:08:48 51°21.423 3°2.974 78.7 12.4 72 11
2002-12-11 09:08:52 51°21.427 3°2.995 79 12.5 72 11
2002-12-11 09:08:58 51°21.434 3°3.027 79 12.5 71.8 11
2002-12-11 09:09:02 51°21.438 3°3.048 79 12.6 72.2 11
2002-12-11 09:09:08 51°21.445 3°3.08 78.5 12.6 71.6 11
2002-12-11 09:09:13 51°21.45 3°3.106 78.7 12.6 71.3 11
2002-12-11 09:09:18 51°21.456 3°3.132 78.7 12.5 71.1 11
2002-12-11 09:09:22 51°21.46 3°3.154 78.8 12.5 71.7 11
2002-12-11 09:09:28 51°21.467 3°3.185 78.5 12.5 70.8 11
2002-12-11 09:09:32 51°21.471 3°3.207 79 12.5 72 10.9
2002-12-11 09:09:38 51°21.478 3°3.238 78.8 12.5 71.5 11
2002-12-11 09:09:43 51°21.483 3°3.265 79.2 12.5 72.5 11
2002-12-11 09:09:48 51°21.488 3°3.291 79.2 12.6 72.3 11
2002-12-11 09:09:53 51°21.494 3°3.318 79 12.6 72 11.1
2002-12-11 09:09:58 51°21.499 3°3.344 78.5 12.6 72 11
2002-12-11 09:10:02 51°21.504 3°3.366 79 12.6 72.1 11
2002-12-11 09:10:08 51°21.51 3°3.398 78.2 12.6 72 11
2002-12-11 09:10:13 51°21.516 3°3.424 79 12.6 71.7 11
2002-12-11 09:10:18 51°21.521 3°3.45 78.7 12.6 71.9 11
2002-12-11 09:10:24 51°21.528 3°3.483 78.7 12.6 71.2 11
2002-12-11 09:10:28 51°21.532 3°3.504 78.2 12.6 71.8 11
2002-12-11 09:10:32 51°21.537 3°3.525 78.5 12.5 71 11
2002-12-11 09:10:38 51°21.543 3°3.557 79 12.5 72.1 10.9
2002-12-11 09:10:43 51°21.549 3°3.582 78.5 12.5 70.9 10.9
2002-12-11 09:10:48 51°21.554 3°3.609 79 12.6 71.9 10.9
2002-12-11 09:10:52 51°21.559 3°3.63 78.5 12.7 71.7 11
2002-12-11 09:10:58 51°21.566 3°3.662 78.7 12.6 71.6 11.1
2002-12-11 09:11:04 51°21.572 3°3.694 79.3 12.6 71.7 11
2002-12-11 09:11:08 51°21.577 3°3.715 78.3 12.6 71.4 11.1
2002-12-11 09:11:13 51°21.582 3°3.741 78.7 12.6 71.3 11
2002-12-11 09:11:18 51°21.588 3°3.768 78.7 12.6 71.5 11
2002-12-11 09:11:22 51°21.592 3°3.789 78.5 12.5 72 11
2002-12-11 09:11:28 51°21.599 3°3.821 78.2 12.5 71.5 11
2002-12-11 09:11:32 51°21.603 3°3.842 78.3 12.6 71.8 11
2002-12-11 09:11:38 51°21.61 3°3.874 78.2 12.7 71.6 11
2002-12-11 09:11:43 51°21.615 3°3.9 78.7 12.6 72 11
2002-12-11 09:11:48 51°21.62 3°3.926 78.7 12.5 72.2 11
2002-12-11 09:11:53 51°21.626 3°3.953 78.3 12.6 71.6 11
2002-12-11 09:11:56 51°21.629 3°3.969 78.7 12.6 71.7 11
2002-12-11 09:12:03 51°21.636 3°4.007 78.8 12.7 72.3 11
2002-12-11 09:12:08 51°21.643 3°4.033 78.3 12.7 71.7 11
2002-12-11 09:12:12 51°21.646 3°4.054 79 12.6 72.8 11
2002-12-11 09:12:18 51°21.653 3°4.086 78.7 12.6 72.3 11
2002-12-11 09:12:24 51°21.659 3°4.117 78.8 12.6 71.9 11
2002-12-11 09:12:28 51°21.664 3°4.139 78.8 12.6 71.8 11.1
2002-12-11 09:12:33 51°21.669 3°4.165 79.3 12.5 71.8 11.1
2002-12-11 09:12:38 51°21.674 3°4.192 78.8 12.6 72.5 11.1
2002-12-11 09:12:43 51°21.68 3°4.218 78.2 12.7 71.8 11.1
2002-12-11 09:12:48 51°21.685 3°4.245 79 12.6 71.8 11.1
2002-12-11 09:12:53 51°21.691 3°4.272 78.5 12.6 72.6 11
2002-12-11 09:12:58 51°21.697 3°4.298 78.7 12.6 71.5 11.1
2002-12-11 09:13:03 51°21.702 3°4.325 79 12.6 72.1 11
2002-12-11 09:13:08 51°21.707 3°4.352 78.8 12.6 72.1 11
2002-12-11 09:13:13 51°21.713 3°4.378 78.7 12.7 71.7 11
2002-12-11 09:13:18 51°21.719 3°4.404 78.7 12.7 71.3 11
2002-12-11 09:13:23 51°21.724 3°4.431 78.7 12.7 72.1 11
2002-12-11 09:13:28 51°21.729 3°4.458 78.7 12.6 71.9 11
2002-12-11 09:13:32 51°21.733 3°4.479 78.5 12.6 72.5 11
2002-12-11 09:13:38 51°21.74 3°4.511 78.3 12.7 71.5 11
2002-12-11 09:13:42 51°21.744 3°4.532 78.7 12.6 72.1 11
2002-12-11 09:13:48 51°21.751 3°4.564 78.8 12.6 71.6 10.9
2002-12-11 09:13:53 51°21.756 3°4.591 78.2 12.7 72.2 11
2002-12-11 09:13:58 51°21.762 3°4.617 78.2 12.7 70.8 11
2002-12-11 09:14:04 51°21.768 3°4.649 78.5 12.6 72.9 11
2002-12-11 09:14:08 51°21.773 3°4.67 77.7 12.6 71.5 11
2002-12-11 09:14:13 51°21.778 3°4.697 77.3 12.6 71.4 11
2002-12-11 09:14:18 51°21.783 3°4.723 78.8 12.5 71.7 11
2002-12-11 09:14:23 51°21.789 3°4.749 78.5 12.5 72.1 11
2002-12-11 09:14:28 51°21.795 3°4.776 78.5 12.6 71.5 11.1
2002-12-11 09:14:33 51°21.8 3°4.802 78.2 12.6 71.5 11.2
2002-12-11 09:14:38 51°21.805 3°4.829 78.7 12.6 72 11.3
2002-12-11 09:14:42 51°21.81 3°4.85 78.7 12.6 71.3 11.2
2002-12-11 09:14:48 51°21.817 3°4.882 78.5 12.6 71.5 11.3
2002-12-11 09:14:53 51°21.822 3°4.908 78.7 12.6 71.6 11.2
2002-12-11 09:14:58 51°21.828 3°4.935 78.8 12.6 71.9 11.3
2002-12-11 09:15:02 51°21.833 3°4.956 79.3 12.6 71.8 11.2
2002-12-11 09:15:08 51°21.839 3°4.988 78.3 12.6 71.8 11.2
2002-12-11 09:15:12 51°21.844 3°5.009 78.8 12.7 71.4 11.2
2002-12-11 09:15:18 51°21.85 3°5.041 78.8 12.6 72.1 11.3
2002-12-11 09:15:24 51°21.856 3°5.073 78.8 12.5 71.9 11.3
2002-12-11 09:15:28 51°21.861 3°5.094 79 12.6 72 11.3
2002-12-11 09:15:33 51°21.866 3°5.12 78.5 12.6 72.1 11.2
2002-12-11 09:15:38 51°21.872 3°5.147 78.5 12.6 71.7 11.2
2002-12-11 09:15:44 51°21.878 3°5.178 78.5 12.6 71.8 11.3
2002-12-11 09:15:48 51°21.883 3°5.199 79 12.6 71.7 11.3
2002-12-11 09:15:52 51°21.887 3°5.22 79.3 12.6 71.9 11.3
2002-12-11 09:15:58 51°21.894 3°5.252 79.2 12.6 71.9 11.3
2002-12-11 09:16:04 51°21.9 3°5.284 78.8 12.6 71.7 11.2
2002-12-11 09:16:08 51°21.905 3°5.305 78.7 12.6 71.8 11.3
2002-12-11 09:16:13 51°21.911 3°5.331 79 12.5 71.3 11.3
2002-12-11 09:16:18 51°21.915 3°5.358 78.8 12.5 72.2 11.3
2002-12-11 09:16:23 51°21.921 3°5.385 78.5 12.6 71.2 11.4
2002-12-11 09:16:28 51°21.926 3°5.411 79 12.6 72.5 11.4
2002-12-11 09:16:32 51°21.931 3°5.432 79.2 12.5 71.8 11.4
2002-12-11 09:16:37 51°21.936 3°5.459 79.3 12.5 72.2 11.4
2002-12-11 09:16:44 51°21.944 3°5.496 79 12.5 71.6 11.3
2002-12-11 09:16:48 51°21.948 3°5.517 78.8 12.6 71.4 11.4
2002-12-11 09:16:53 51°21.954 3°5.543 78.7 12.5 71.6 11.4
2002-12-11 09:16:58 51°21.959 3°5.569 79 12.5 71.8 11.4
2002-12-11 09:17:03 51°21.965 3°5.596 79.2 12.5 71.6 11.4
2002-12-11 09:17:08 51°21.97 3°5.622 79.2 12.4 72 11.4
2002-12-11 09:17:12 51°21.974 3°5.643 79.3 12.5 71.9 11.4
2002-12-11 09:17:18 51°21.981 3°5.675 77.8 12.6 71.2 11.4
2002-12-11 09:17:24 51°21.987 3°5.706 78.7 12.5 71.4 11.5
2002-12-11 09:17:28 51°21.992 3°5.727 79 12.5 71.6 11.5
2002-12-11 09:17:32 51°21.996 3°5.748 78.8 12.6 71.9 11.5
2002-12-11 09:17:38 51°22.004 3°5.78 78.5 12.6 71 11.5
2002-12-11 09:17:44 51°22.009 3°5.812 79.7 12.5 72 11.6
2002-12-11 09:17:48 51°22.014 3°5.832 78.5 12.5 71.8 11.5